sensor_id;sensor_type;location;lat;lon;timestamp;pressure;altitude;pressure_sealevel;temperature
76901;BMP280;65859;43.020;25.096;2023-04-06T00:00:07;99045.16;;;5.03
76901;BMP280;65859;43.020;25.096;2023-04-06T00:02:35;99039.31;;;5.24
76901;BMP280;65859;43.020;25.096;2023-04-06T00:05:02;99040.41;;;5.23
76901;BMP280;65859;43.020;25.096;2023-04-06T00:07:28;99042.28;;;5.04
76901;BMP280;65859;43.020;25.096;2023-04-06T00:09:55;99044.59;;;5.24
76901;BMP280;65859;43.020;25.096;2023-04-06T00:12:22;99033.66;;;4.98
76901;BMP280;65859;43.020;25.096;2023-04-06T00:14:48;99032.72;;;5.27
76901;BMP280;65859;43.020;25.096;2023-04-06T00:17:14;99027.28;;;5.37
76901;BMP280;65859;43.020;25.096;2023-04-06T00:19:41;99015.66;;;5.24
76901;BMP280;65859;43.020;25.096;2023-04-06T00:22:07;99006.31;;;5.32
76901;BMP280;65859;43.020;25.096;2023-04-06T00:24:33;99005.13;;;5.24
76901;BMP280;65859;43.020;25.096;2023-04-06T00:27:00;99004.41;;;5.38
76901;BMP280;65859;43.020;25.096;2023-04-06T00:29:28;98993.75;;;5.29
76901;BMP280;65859;43.020;25.096;2023-04-06T00:31:54;98998.72;;;5.31
76901;BMP280;65859;43.020;25.096;2023-04-06T00:34:21;98997.47;;;5.28
76901;BMP280;65859;43.020;25.096;2023-04-06T00:36:47;98989.22;;;5.48
76901;BMP280;65859;43.020;25.096;2023-04-06T00:39:13;98993.56;;;5.39
76901;BMP280;65859;43.020;25.096;2023-04-06T00:41:45;98988.06;;;4.89
76901;BMP280;65859;43.020;25.096;2023-04-06T00:44:12;98984.88;;;4.92
76901;BMP280;65859;43.020;25.096;2023-04-06T00:46:39;98988.31;;;5.07
76901;BMP280;65859;43.020;25.096;2023-04-06T00:49:05;98982.75;;;5.27
76901;BMP280;65859;43.020;25.096;2023-04-06T00:51:31;98994.50;;;4.78
76901;BMP280;65859;43.020;25.096;2023-04-06T00:53:58;98989.22;;;4.83
76901;BMP280;65859;43.020;25.096;2023-04-06T00:56:24;98988.47;;;4.78
76901;BMP280;65859;43.020;25.096;2023-04-06T00:58:52;98979.94;;;4.53
76901;BMP280;65859;43.020;25.096;2023-04-06T01:01:20;98983.97;;;4.64
76901;BMP280;65859;43.020;25.096;2023-04-06T01:03:46;98980.19;;;4.52
76901;BMP280;65859;43.020;25.096;2023-04-06T01:06:15;98974.91;;;4.89
76901;BMP280;65859;43.020;25.096;2023-04-06T01:08:42;98977.53;;;5.22
76901;BMP280;65859;43.020;25.096;2023-04-06T01:11:08;98974.50;;;5.15
76901;BMP280;65859;43.020;25.096;2023-04-06T01:13:34;98978.38;;;5.04
76901;BMP280;65859;43.020;25.096;2023-04-06T01:16:01;98969.72;;;4.84
76901;BMP280;65859;43.020;25.096;2023-04-06T01:18:28;98969.44;;;5.18
76901;BMP280;65859;43.020;25.096;2023-04-06T01:20:55;98967.13;;;5.17
76901;BMP280;65859;43.020;25.096;2023-04-06T01:23:21;98952.81;;;4.58
76901;BMP280;65859;43.020;25.096;2023-04-06T01:25:47;98945.19;;;4.37
76901;BMP280;65859;43.020;25.096;2023-04-06T01:28:14;98939.72;;;4.34
76901;BMP280;65859;43.020;25.096;2023-04-06T01:30:40;98943.81;;;4.40
76901;BMP280;65859;43.020;25.096;2023-04-06T01:33:08;98943.41;;;4.52
76901;BMP280;65859;43.020;25.096;2023-04-06T01:35:35;98951.94;;;4.43
76901;BMP280;65859;43.020;25.096;2023-04-06T01:38:02;98947.63;;;4.85
76901;BMP280;65859;43.020;25.096;2023-04-06T01:40:28;98941.22;;;5.10
76901;BMP280;65859;43.020;25.096;2023-04-06T01:42:55;98945.72;;;5.23
76901;BMP280;65859;43.020;25.096;2023-04-06T01:45:21;98930.59;;;5.15
76901;BMP280;65859;43.020;25.096;2023-04-06T01:47:47;98941.06;;;4.69
76901;BMP280;65859;43.020;25.096;2023-04-06T01:50:14;98926.19;;;4.97
76901;BMP280;65859;43.020;25.096;2023-04-06T01:52:40;98931.47;;;4.59
76901;BMP280;65859;43.020;25.096;2023-04-06T01:55:06;98928.06;;;4.40
76901;BMP280;65859;43.020;25.096;2023-04-06T01:57:33;98927.66;;;4.52
76901;BMP280;65859;43.020;25.096;2023-04-06T02:00:00;98928.44;;;4.33
76901;BMP280;65859;43.020;25.096;2023-04-06T02:02:27;98923.75;;;4.30
76901;BMP280;65859;43.020;25.096;2023-04-06T02:04:54;98924.69;;;4.39
76901;BMP280;65859;43.020;25.096;2023-04-06T02:07:20;98925.44;;;4.21
76901;BMP280;65859;43.020;25.096;2023-04-06T02:09:47;98918.16;;;4.18
76901;BMP280;65859;43.020;25.096;2023-04-06T02:12:13;98926.66;;;4.29
76901;BMP280;65859;43.020;25.096;2023-04-06T02:14:39;98917.72;;;4.30
76901;BMP280;65859;43.020;25.096;2023-04-06T02:17:06;98924.16;;;4.18
76901;BMP280;65859;43.020;25.096;2023-04-06T02:19:32;98920.13;;;4.26
76901;BMP280;65859;43.020;25.096;2023-04-06T02:21:58;98914.19;;;4.39
76901;BMP280;65859;43.020;25.096;2023-04-06T02:24:25;98921.84;;;4.36
76901;BMP280;65859;43.020;25.096;2023-04-06T02:26:51;98921.41;;;4.29
76901;BMP280;65859;43.020;25.096;2023-04-06T02:29:17;98922.25;;;4.24
76901;BMP280;65859;43.020;25.096;2023-04-06T02:31:44;98924.38;;;4.22
76901;BMP280;65859;43.020;25.096;2023-04-06T02:34:10;98924.69;;;4.39
76901;BMP280;65859;43.020;25.096;2023-04-06T02:36:39;98919.91;;;4.41
76901;BMP280;65859;43.020;25.096;2023-04-06T02:39:05;98928.94;;;4.35
76901;BMP280;65859;43.020;25.096;2023-04-06T02:41:32;98926.66;;;4.29
76901;BMP280;65859;43.020;25.096;2023-04-06T02:43:58;98923.53;;;4.27
76901;BMP280;65859;43.020;25.096;2023-04-06T02:46:24;98925.44;;;4.21
76901;BMP280;65859;43.020;25.096;2023-04-06T02:48:51;98920.13;;;4.26
76901;BMP280;65859;43.020;25.096;2023-04-06T02:51:17;98928.53;;;4.04
76901;BMP280;65859;43.020;25.096;2023-04-06T02:53:43;98931.69;;;4.25
76901;BMP280;65859;43.020;25.096;2023-04-06T02:56:10;98922.72;;;3.88
76901;BMP280;65859;43.020;25.096;2023-04-06T02:58:36;98925.28;;;3.69
76901;BMP280;65859;43.020;25.096;2023-04-06T03:01:03;98923.00;;;3.87
76901;BMP280;65859;43.020;25.096;2023-04-06T03:03:29;98928.41;;;3.71
76901;BMP280;65859;43.020;25.096;2023-04-06T03:05:56;98922.72;;;3.64
76901;BMP280;65859;43.020;25.096;2023-04-06T03:08:25;98928.41;;;3.95
76901;BMP280;65859;43.020;25.096;2023-04-06T03:10:52;98927.13;;;3.93
76901;BMP280;65859;43.020;25.096;2023-04-06T03:13:18;98937.19;;;4.05
76901;BMP280;65859;43.020;25.096;2023-04-06T03:15:44;98932.66;;;3.91
76901;BMP280;65859;43.020;25.096;2023-04-06T03:18:10;98933.19;;;4.12
76901;BMP280;65859;43.020;25.096;2023-04-06T03:20:37;98930.41;;;4.41
76901;BMP280;65859;43.020;25.096;2023-04-06T03:23:03;98932.25;;;4.22
76901;BMP280;65859;43.020;25.096;2023-04-06T03:25:29;98928.84;;;4.40
76901;BMP280;65859;43.020;25.096;2023-04-06T03:27:56;98931.69;;;4.44
76901;BMP280;65859;43.020;25.096;2023-04-06T03:30:23;98929.72;;;4.55
76901;BMP280;65859;43.020;25.096;2023-04-06T03:32:49;98924.16;;;4.56
76901;BMP280;65859;43.020;25.096;2023-04-06T03:35:19;98930.22;;;4.57
76901;BMP280;65859;43.020;25.096;2023-04-06T03:37:45;98924.88;;;4.62
76901;BMP280;65859;43.020;25.096;2023-04-06T03:40:13;98930.22;;;4.57
76901;BMP280;65859;43.020;25.096;2023-04-06T03:42:40;98928.22;;;4.48
76901;BMP280;65859;43.020;25.096;2023-04-06T03:45:07;98932.06;;;4.56
76901;BMP280;65859;43.020;25.096;2023-04-06T03:47:36;98925.25;;;4.55
76901;BMP280;65859;43.020;25.096;2023-04-06T03:50:09;98931.34;;;4.69
76901;BMP280;65859;43.020;25.096;2023-04-06T03:52:36;98936.94;;;4.63
76901;BMP280;65859;43.020;25.096;2023-04-06T03:55:02;98936.22;;;4.19
76901;BMP280;65859;43.020;25.096;2023-04-06T03:57:29;98935.50;;;3.95
76901;BMP280;65859;43.020;25.096;2023-04-06T03:59:55;98936.06;;;3.92
76901;BMP280;65859;43.020;25.096;2023-04-06T04:02:24;98931.97;;;3.81
76901;BMP280;65859;43.020;25.096;2023-04-06T04:04:50;98927.72;;;3.85
76901;BMP280;65859;43.020;25.096;2023-04-06T04:07:16;98936.66;;;3.84
76901;BMP280;65859;43.020;25.096;2023-04-06T04:09:43;98936.38;;;3.85
76901;BMP280;65859;43.020;25.096;2023-04-06T04:12:10;98936.00;;;3.97
76901;BMP280;65859;43.020;25.096;2023-04-06T04:14:36;98938.69;;;3.92
76901;BMP280;65859;43.020;25.096;2023-04-06T04:17:03;98942.69;;;3.84
76901;BMP280;65859;43.020;25.096;2023-04-06T04:19:29;98939.56;;;3.82
76901;BMP280;65859;43.020;25.096;2023-04-06T04:21:55;98936.69;;;4.03
76901;BMP280;65859;43.020;25.096;2023-04-06T04:24:22;98939.81;;;4.05
76901;BMP280;65859;43.020;25.096;2023-04-06T04:26:48;98931.53;;;3.97
76901;BMP280;65859;43.020;25.096;2023-04-06T04:29:14;98927.41;;;3.91
76901;BMP280;65859;43.020;25.096;2023-04-06T04:31:41;98932.16;;;4.08
76901;BMP280;65859;43.020;25.096;2023-04-06T04:34:07;98925.25;;;3.93
76901;BMP280;65859;43.020;25.096;2023-04-06T04:36:34;98936.63;;;4.08
76901;BMP280;65859;43.020;25.096;2023-04-06T04:39:00;98930.94;;;4.01
76901;BMP280;65859;43.020;25.096;2023-04-06T04:41:27;98929.81;;;4.07
76901;BMP280;65859;43.020;25.096;2023-04-06T04:43:55;98931.44;;;4.03
76901;BMP280;65859;43.020;25.096;2023-04-06T04:46:21;98931.06;;;4.14
76901;BMP280;65859;43.020;25.096;2023-04-06T04:48:47;98934.25;;;4.30
76901;BMP280;65859;43.020;25.096;2023-04-06T04:51:14;98939.88;;;4.42
76901;BMP280;65859;43.020;25.096;2023-04-06T04:53:40;98934.53;;;4.47
76901;BMP280;65859;43.020;25.096;2023-04-06T04:56:06;98933.13;;;4.55
76901;BMP280;65859;43.020;25.096;2023-04-06T04:58:33;98932.25;;;4.60
76901;BMP280;65859;43.020;25.096;2023-04-06T05:00:59;98926.91;;;4.84
76901;BMP280;65859;43.020;25.096;2023-04-06T05:03:26;98930.22;;;4.76
76901;BMP280;65859;43.020;25.096;2023-04-06T05:05:53;98940.56;;;4.67
76901;BMP280;65859;43.020;25.096;2023-04-06T05:08:19;98939.34;;;4.40
76901;BMP280;65859;43.020;25.096;2023-04-06T05:10:46;98938.16;;;4.33
76901;BMP280;65859;43.020;25.096;2023-04-06T05:13:14;98931.06;;;4.14
76901;BMP280;65859;43.020;25.096;2023-04-06T05:15:42;98937.50;;;4.22
76901;BMP280;65859;43.020;25.096;2023-04-06T05:18:09;98939.72;;;4.34
76901;BMP280;65859;43.020;25.096;2023-04-06T05:20:36;98933.47;;;4.48
76901;BMP280;65859;43.020;25.096;2023-04-06T05:23:02;98942.13;;;4.30
76901;BMP280;65859;43.020;25.096;2023-04-06T05:25:29;98934.81;;;4.65
76901;BMP280;65859;43.020;25.096;2023-04-06T05:27:55;98928.94;;;5.06
76901;BMP280;65859;43.020;25.096;2023-04-06T05:30:22;98929.06;;;5.28
76901;BMP280;65859;43.020;25.096;2023-04-06T05:32:48;98930.41;;;5.26
76901;BMP280;65859;43.020;25.096;2023-04-06T05:35:15;98927.59;;;5.36
76901;BMP280;65859;43.020;25.096;2023-04-06T05:37:44;98933.25;;;5.29
76901;BMP280;65859;43.020;25.096;2023-04-06T05:40:10;98922.47;;;5.44
76901;BMP280;65859;43.020;25.096;2023-04-06T05:42:41;98923.84;;;5.42
76901;BMP280;65859;43.020;25.096;2023-04-06T05:45:09;98919.63;;;5.55
76901;BMP280;65859;43.020;25.096;2023-04-06T05:47:38;98929.69;;;5.53
76901;BMP280;65859;43.020;25.096;2023-04-06T05:50:05;98921.47;;;5.40
76901;BMP280;65859;43.020;25.096;2023-04-06T05:52:31;98923.84;;;5.56
76901;BMP280;65859;43.020;25.096;2023-04-06T05:54:57;98921.06;;;5.47
76901;BMP280;65859;43.020;25.096;2023-04-06T05:57:24;98922.75;;;5.57
76901;BMP280;65859;43.020;25.096;2023-04-06T05:59:50;98923.41;;;5.62
76901;BMP280;65859;43.020;25.096;2023-04-06T06:02:16;98917.88;;;5.64
76901;BMP280;65859;43.020;25.096;2023-04-06T06:04:42;98918.09;;;5.67
76901;BMP280;65859;43.020;25.096;2023-04-06T06:07:09;98913.88;;;5.66
76901;BMP280;65859;43.020;25.096;2023-04-06T06:09:35;98905.50;;;5.78
76901;BMP280;65859;43.020;25.096;2023-04-06T06:12:01;98899.03;;;5.84
76901;BMP280;65859;43.020;25.096;2023-04-06T06:14:28;98897.56;;;5.92
76901;BMP280;65859;43.020;25.096;2023-04-06T06:16:57;98895.63;;;5.97
76901;BMP280;65859;43.020;25.096;2023-04-06T06:19:24;98887.22;;;5.95
76901;BMP280;65859;43.020;25.096;2023-04-06T06:21:51;98892.75;;;6.08
76901;BMP280;65859;43.020;25.096;2023-04-06T06:24:17;98890.69;;;6.18
76901;BMP280;65859;43.020;25.096;2023-04-06T06:26:43;98892.41;;;6.23
76901;BMP280;65859;43.020;25.096;2023-04-06T06:29:10;98888.78;;;6.33
76901;BMP280;65859;43.020;25.096;2023-04-06T06:31:36;98887.38;;;6.35
76901;BMP280;65859;43.020;25.096;2023-04-06T06:34:02;98893.56;;;6.31
76901;BMP280;65859;43.020;25.096;2023-04-06T06:36:29;98895.53;;;6.25
76901;BMP280;65859;43.020;25.096;2023-04-06T06:38:57;98900.91;;;6.34
76901;BMP280;65859;43.020;25.096;2023-04-06T06:41:26;98897.03;;;6.40
76901;BMP280;65859;43.020;25.096;2023-04-06T06:43:52;98895.66;;;6.42
76901;BMP280;65859;43.020;25.096;2023-04-06T06:46:19;98897.09;;;6.48
76901;BMP280;65859;43.020;25.096;2023-04-06T06:48:46;98901.84;;;6.60
76901;BMP280;65859;43.020;25.096;2023-04-06T06:51:13;98898.09;;;6.61
76901;BMP280;65859;43.020;25.096;2023-04-06T06:53:40;98905.13;;;6.66
76901;BMP280;65859;43.020;25.096;2023-04-06T06:56:06;98903.28;;;6.66
76901;BMP280;65859;43.020;25.096;2023-04-06T06:58:33;98903.81;;;6.54
76901;BMP280;65859;43.020;25.096;2023-04-06T07:01:00;98908.31;;;6.54
76901;BMP280;65859;43.020;25.096;2023-04-06T07:03:26;98896.50;;;6.74
76901;BMP280;65859;43.020;25.096;2023-04-06T07:05:53;98900.53;;;6.71
76901;BMP280;65859;43.020;25.096;2023-04-06T07:08:24;98901.28;;;6.49
76901;BMP280;65859;43.020;25.096;2023-04-06T07:10:51;98906.78;;;6.62
76901;BMP280;65859;43.020;25.096;2023-04-06T07:13:24;98893.97;;;6.69
76901;BMP280;65859;43.020;25.096;2023-04-06T07:15:52;98898.59;;;6.63
76901;BMP280;65859;43.020;25.096;2023-04-06T07:18:19;98902.66;;;6.69
76901;BMP280;65859;43.020;25.096;2023-04-06T07:20:46;98901.94;;;6.77
76901;BMP280;65859;43.020;25.096;2023-04-06T07:23:14;98896.25;;;6.84
76901;BMP280;65859;43.020;25.096;2023-04-06T07:25:41;98899.38;;;6.86
76901;BMP280;65859;43.020;25.096;2023-04-06T07:28:08;98892.69;;;6.89
76901;BMP280;65859;43.020;25.096;2023-04-06T07:30:34;98896.16;;;6.98
76901;BMP280;65859;43.020;25.096;2023-04-06T07:33:00;98894.34;;;7.07
76901;BMP280;65859;43.020;25.096;2023-04-06T07:35:27;98890.94;;;7.07
76901;BMP280;65859;43.020;25.096;2023-04-06T07:37:56;98891.97;;;7.37
76901;BMP280;65859;43.020;25.096;2023-04-06T07:40:22;98885.25;;;7.22
76901;BMP280;65859;43.020;25.096;2023-04-06T07:42:49;98890.63;;;7.08
76901;BMP280;65859;43.020;25.096;2023-04-06T07:45:16;98884.56;;;7.47
76901;BMP280;65859;43.020;25.096;2023-04-06T07:47:42;98884.19;;;7.31
76901;BMP280;65859;43.020;25.096;2023-04-06T07:50:09;98883.31;;;7.53
76901;BMP280;65859;43.020;25.096;2023-04-06T07:52:36;98885.47;;;7.43
76901;BMP280;65859;43.020;25.096;2023-04-06T07:55:04;98885.94;;;7.45
76901;BMP280;65859;43.020;25.096;2023-04-06T07:57:30;98895.28;;;7.59
76901;BMP280;65859;43.020;25.096;2023-04-06T07:59:57;98896.81;;;7.61
76901;BMP280;65859;43.020;25.096;2023-04-06T08:02:23;98895.72;;;7.44
76901;BMP280;65859;43.020;25.096;2023-04-06T08:04:49;98898.69;;;7.60
76901;BMP280;65859;43.020;25.096;2023-04-06T08:07:16;98892.09;;;7.80
76901;BMP280;65859;43.020;25.096;2023-04-06T08:09:43;98883.38;;;7.71
76901;BMP280;65859;43.020;25.096;2023-04-06T08:12:09;98884.75;;;7.68
76901;BMP280;65859;43.020;25.096;2023-04-06T08:14:36;98894.56;;;7.85
76901;BMP280;65859;43.020;25.096;2023-04-06T08:17:02;98888.97;;;7.69
76901;BMP280;65859;43.020;25.096;2023-04-06T08:19:28;98884.75;;;7.94
76901;BMP280;65859;43.020;25.096;2023-04-06T08:21:55;98882.91;;;8.21
76901;BMP280;65859;43.020;25.096;2023-04-06T08:24:21;98889.91;;;7.99
76901;BMP280;65859;43.020;25.096;2023-04-06T08:26:49;98880.91;;;8.35
76901;BMP280;65859;43.020;25.096;2023-04-06T08:29:16;98885.03;;;8.53
76901;BMP280;65859;43.020;25.096;2023-04-06T08:31:43;98885.59;;;8.85
76901;BMP280;65859;43.020;25.096;2023-04-06T08:34:09;98879.09;;;9.12
76901;BMP280;65859;43.020;25.096;2023-04-06T08:36:36;98883.75;;;9.15
76901;BMP280;65859;43.020;25.096;2023-04-06T08:39:03;98883.09;;;10.10
76901;BMP280;65859;43.020;25.096;2023-04-06T08:41:29;98884.16;;;9.76
76901;BMP280;65859;43.020;25.096;2023-04-06T08:44:01;98875.41;;;9.55
76901;BMP280;65859;43.020;25.096;2023-04-06T08:46:29;98875.41;;;9.55
76901;BMP280;65859;43.020;25.096;2023-04-06T08:49:03;98872.00;;;9.54
76901;BMP280;65859;43.020;25.096;2023-04-06T08:51:32;98872.06;;;9.45
76901;BMP280;65859;43.020;25.096;2023-04-06T08:54:01;98874.00;;;8.98
76901;BMP280;65859;43.020;25.096;2023-04-06T08:56:28;98866.31;;;9.14
76901;BMP280;65859;43.020;25.096;2023-04-06T08:58:56;98873.00;;;9.11
76901;BMP280;65859;43.020;25.096;2023-04-06T09:01:27;98860.53;;;9.21
76901;BMP280;65859;43.020;25.096;2023-04-06T09:03:58;98864.28;;;9.20
76901;BMP280;65859;43.020;25.096;2023-04-06T09:06:26;98859.03;;;9.61
76901;BMP280;65859;43.020;25.096;2023-04-06T09:08:53;98858.16;;;9.28
76901;BMP280;65859;43.020;25.096;2023-04-06T09:11:19;98851.56;;;9.55
76901;BMP280;65859;43.020;25.096;2023-04-06T09:13:53;98859.97;;;9.36
76901;BMP280;65859;43.020;25.096;2023-04-06T09:16:20;98852.69;;;9.75
76901;BMP280;65859;43.020;25.096;2023-04-06T09:18:48;98856.13;;;9.75
76901;BMP280;65859;43.020;25.096;2023-04-06T09:21:17;98854.88;;;9.72
76901;BMP280;65859;43.020;25.096;2023-04-06T09:23:45;98851.66;;;9.88
76901;BMP280;65859;43.020;25.096;2023-04-06T09:26:16;98842.84;;;9.96
76901;BMP280;65859;43.020;25.096;2023-04-06T09:28:51;98842.00;;;10.37
76901;BMP280;65859;43.020;25.096;2023-04-06T09:31:29;98837.94;;;10.64
76901;BMP280;65859;43.020;25.096;2023-04-06T09:33:56;98841.81;;;10.79
76901;BMP280;65859;43.020;25.096;2023-04-06T09:36:34;98834.50;;;10.88
76901;BMP280;65859;43.020;25.096;2023-04-06T09:39:03;98828.91;;;11.70
76901;BMP280;65859;43.020;25.096;2023-04-06T09:41:31;98826.16;;;11.26
76901;BMP280;65859;43.020;25.096;2023-04-06T09:44:09;98828.38;;;12.87
76901;BMP280;65859;43.020;25.096;2023-04-06T09:46:38;98832.03;;;13.95
76901;BMP280;65859;43.020;25.096;2023-04-06T09:49:06;98830.78;;;13.70
76901;BMP280;65859;43.020;25.096;2023-04-06T09:51:46;98844.63;;;17.29
76901;BMP280;65859;43.020;25.096;2023-04-06T09:54:22;98839.84;;;15.77
76901;BMP280;65859;43.020;25.096;2023-04-06T09:56:56;98824.22;;;15.82
76901;BMP280;65859;43.020;25.096;2023-04-06T10:01:58;98833.41;;;16.29
76901;BMP280;65859;43.020;25.096;2023-04-06T10:07:00;98813.28;;;12.12
76901;BMP280;65859;43.020;25.096;2023-04-06T10:09:29;98805.19;;;11.77
76901;BMP280;65859;43.020;25.096;2023-04-06T10:12:11;98806.78;;;11.66
76901;BMP280;65859;43.020;25.096;2023-04-06T10:14:39;98807.44;;;11.35
76901;BMP280;65859;43.020;25.096;2023-04-06T10:17:07;98800.41;;;11.15
76901;BMP280;65859;43.020;25.096;2023-04-06T10:22:11;98808.03;;;11.16
76901;BMP280;65859;43.020;25.096;2023-04-06T10:24:38;98806.28;;;11.08
76901;BMP280;65859;43.020;25.096;2023-04-06T10:27:06;98802.84;;;11.07
76901;BMP280;65859;43.020;25.096;2023-04-06T10:29:48;98801.53;;;11.01
76901;BMP280;65859;43.020;25.096;2023-04-06T10:32:18;98806.19;;;10.92
76901;BMP280;65859;43.020;25.096;2023-04-06T10:34:44;98806.41;;;11.12
76901;BMP280;65859;43.020;25.096;2023-04-06T10:37:12;98804.31;;;10.93
76901;BMP280;65859;43.020;25.096;2023-04-06T10:39:52;98803.19;;;11.18
76901;BMP280;65859;43.020;25.096;2023-04-06T10:42:37;98808.72;;;11.01
76901;BMP280;65859;43.020;25.096;2023-04-06T10:45:07;98808.94;;;11.08
76901;BMP280;65859;43.020;25.096;2023-04-06T10:47:40;98802.72;;;11.16
76901;BMP280;65859;43.020;25.096;2023-04-06T10:50:07;98802.75;;;11.04
76901;BMP280;65859;43.020;25.096;2023-04-06T10:52:33;98797.53;;;11.20
76901;BMP280;65859;43.020;25.096;2023-04-06T10:55:00;98799.69;;;11.30
76901;BMP280;65859;43.020;25.096;2023-04-06T10:57:30;98792.09;;;11.16
76901;BMP280;65859;43.020;25.096;2023-04-06T10:59:58;98800.84;;;11.29
76901;BMP280;65859;43.020;25.096;2023-04-06T11:02:26;98790.78;;;11.78
76901;BMP280;65859;43.020;25.096;2023-04-06T11:04:59;98788.22;;;11.98
76901;BMP280;65859;43.020;25.096;2023-04-06T11:07:29;98794.59;;;12.40
76901;BMP280;65859;43.020;25.096;2023-04-06T11:09:56;98795.97;;;12.18
76901;BMP280;65859;43.020;25.096;2023-04-06T11:12:27;98790.38;;;12.39
76901;BMP280;65859;43.020;25.096;2023-04-06T11:15:01;98777.78;;;12.36
76901;BMP280;65859;43.020;25.096;2023-04-06T11:17:33;98787.03;;;12.93
76901;BMP280;65859;43.020;25.096;2023-04-06T11:20:00;98778.19;;;12.54
76901;BMP280;65859;43.020;25.096;2023-04-06T11:22:27;98775.63;;;11.95
76901;BMP280;65859;43.020;25.096;2023-04-06T11:25:04;98776.56;;;12.18
76901;BMP280;65859;43.020;25.096;2023-04-06T11:27:30;98773.25;;;12.21
76901;BMP280;65859;43.020;25.096;2023-04-06T11:29:59;98776.75;;;11.38
76901;BMP280;65859;43.020;25.096;2023-04-06T11:32:27;98774.91;;;11.66
76901;BMP280;65859;43.020;25.096;2023-04-06T11:34:53;98788.75;;;12.66
76901;BMP280;65859;43.020;25.096;2023-04-06T11:37:20;98771.50;;;12.44
76901;BMP280;65859;43.020;25.096;2023-04-06T11:39:51;98774.41;;;13.68
76901;BMP280;65859;43.020;25.096;2023-04-06T11:42:28;98768.09;;;13.56
76901;BMP280;65859;43.020;25.096;2023-04-06T11:44:59;98767.13;;;12.05
76901;BMP280;65859;43.020;25.096;2023-04-06T11:47:32;98758.28;;;11.85
76901;BMP280;65859;43.020;25.096;2023-04-06T11:50:09;98760.16;;;11.41
76901;BMP280;65859;43.020;25.096;2023-04-06T11:52:37;98766.63;;;11.55
76901;BMP280;65859;43.020;25.096;2023-04-06T11:57:39;98765.59;;;11.60
76901;BMP280;65859;43.020;25.096;2023-04-06T12:00:07;98763.81;;;11.64
76901;BMP280;65859;43.020;25.096;2023-04-06T12:02:36;98768.34;;;12.39
76901;BMP280;65859;43.020;25.096;2023-04-06T12:05:04;98750.31;;;12.83
76901;BMP280;65859;43.020;25.096;2023-04-06T12:07:31;98757.44;;;12.28
76901;BMP280;65859;43.020;25.096;2023-04-06T12:12:26;98749.00;;;11.79
76901;BMP280;65859;43.020;25.096;2023-04-06T12:14:52;98757.81;;;11.95
76901;BMP280;65859;43.020;25.096;2023-04-06T12:17:19;98749.97;;;12.18
76901;BMP280;65859;43.020;25.096;2023-04-06T12:19:46;98753.06;;;12.71
76901;BMP280;65859;43.020;25.096;2023-04-06T12:22:13;98746.97;;;12.35
76901;BMP280;65859;43.020;25.096;2023-04-06T12:24:39;98743.88;;;12.33
76901;BMP280;65859;43.020;25.096;2023-04-06T12:27:05;98735.25;;;12.56
76901;BMP280;65859;43.020;25.096;2023-04-06T12:29:31;98739.34;;;12.02
76901;BMP280;65859;43.020;25.096;2023-04-06T12:31:58;98737.25;;;11.80
76901;BMP280;65859;43.020;25.096;2023-04-06T12:34:28;98734.09;;;11.74
76901;BMP280;65859;43.020;25.096;2023-04-06T12:36:54;98739.97;;;11.96
76901;BMP280;65859;43.020;25.096;2023-04-06T12:39:22;98736.56;;;11.83
76901;BMP280;65859;43.020;25.096;2023-04-06T12:41:48;98731.25;;;11.51
76901;BMP280;65859;43.020;25.096;2023-04-06T12:44:14;98739.03;;;11.60
76901;BMP280;65859;43.020;25.096;2023-04-06T12:46:41;98733.13;;;11.82
76901;BMP280;65859;43.020;25.096;2023-04-06T12:49:09;98734.44;;;11.73
76901;BMP280;65859;43.020;25.096;2023-04-06T12:51:35;98726.00;;;11.55
76901;BMP280;65859;43.020;25.096;2023-04-06T12:54:02;98728.19;;;11.37
76901;BMP280;65859;43.020;25.096;2023-04-06T12:56:28;98723.16;;;11.48
76901;BMP280;65859;43.020;25.096;2023-04-06T12:58:55;98725.31;;;11.58
76901;BMP280;65859;43.020;25.096;2023-04-06T13:01:22;98731.78;;;11.45
76901;BMP280;65859;43.020;25.096;2023-04-06T13:03:48;98727.84;;;11.11
76901;BMP280;65859;43.020;25.096;2023-04-06T13:06:16;98724.78;;;11.52
76901;BMP280;65859;43.020;25.096;2023-04-06T13:08:42;98717.59;;;11.69
76901;BMP280;65859;43.020;25.096;2023-04-06T13:11:09;98711.78;;;11.63
76901;BMP280;65859;43.020;25.096;2023-04-06T13:13:36;98708.19;;;11.27
76901;BMP280;65859;43.020;25.096;2023-04-06T13:16:04;98713.00;;;11.38
76901;BMP280;65859;43.020;25.096;2023-04-06T13:18:32;98718.31;;;11.38
76901;BMP280;65859;43.020;25.096;2023-04-06T13:21:00;98712.66;;;11.51
76901;BMP280;65859;43.020;25.096;2023-04-06T13:23:27;98707.69;;;11.38
76901;BMP280;65859;43.020;25.096;2023-04-06T13:26:04;98713.50;;;11.27
76901;BMP280;65859;43.020;25.096;2023-04-06T13:28:32;98715.84;;;11.29
76901;BMP280;65859;43.020;25.096;2023-04-06T13:30:59;98710.00;;;11.39
76901;BMP280;65859;43.020;25.096;2023-04-06T13:33:28;98709.16;;;11.07
76901;BMP280;65859;43.020;25.096;2023-04-06T13:35:54;98705.16;;;11.13
76901;BMP280;65859;43.020;25.096;2023-04-06T13:38:22;98712.28;;;11.25
76901;BMP280;65859;43.020;25.096;2023-04-06T13:40:50;98704.94;;;11.18
76901;BMP280;65859;43.020;25.096;2023-04-06T13:43:16;98714.75;;;11.18
76901;BMP280;65859;43.020;25.096;2023-04-06T13:45:55;98712.00;;;11.42
76901;BMP280;65859;43.020;25.096;2023-04-06T13:48:22;98704.22;;;11.21
76901;BMP280;65859;43.020;25.096;2023-04-06T13:50:49;98702.50;;;11.41
76901;BMP280;65859;43.020;25.096;2023-04-06T13:53:15;98701.47;;;11.61
76901;BMP280;65859;43.020;25.096;2023-04-06T13:55:41;98699.34;;;11.67
76901;BMP280;65859;43.020;25.096;2023-04-06T13:58:08;98707.25;;;11.79
76901;BMP280;65859;43.020;25.096;2023-04-06T14:00:34;98711.09;;;11.82
76901;BMP280;65859;43.020;25.096;2023-04-06T14:03:01;98709.56;;;11.97
76901;BMP280;65859;43.020;25.096;2023-04-06T14:05:34;98712.31;;;11.84
76901;BMP280;65859;43.020;25.096;2023-04-06T14:08:01;98705.72;;;11.62
76901;BMP280;65859;43.020;25.096;2023-04-06T14:10:29;98704.41;;;11.56
76901;BMP280;65859;43.020;25.096;2023-04-06T14:12:55;98701.22;;;11.51
76901;BMP280;65859;43.020;25.096;2023-04-06T14:15:22;98704.28;;;11.37
76901;BMP280;65859;43.020;25.096;2023-04-06T14:17:49;98703.13;;;11.22